Time;durP1;ratioP1;P1;durP2;ratioP2;P2;SDS_P1;SDS_P2;PMS_P1;PMS_P2;Temp;Humidity;BMP_temperature;BMP_pressure;BME280_temperature;BME280_humidity;BME280_pressure;Samples;Min_cycle;Max_cycle;Signal;HPM_P1;HPM_P2
2022/06/21 00:02:17;;;;;;;;;;;;;;;13.85;49.64551;101861;;;;-81
2022/06/21 00:07:21;;;;;;;;;;;;;;;13.79;49.75195;101852.6;;;;-82
2022/06/21 00:12:17;;;;;;;;;;;;;;;13.71;49.88867;101856.3;;;;-82
2022/06/21 00:13:10;;;;;;;3.9;1.7;;;;;;;;;;;;;-83
2022/06/21 00:17:21;;;;;;;;;;;;;;;13.62;50.1709;101856.6;;;;-82
2022/06/21 00:22:18;;;;;;;;;;;;;;;13.57;50.05273;101847.1;;;;-80
2022/06/21 00:27:18;;;;;;;;;;;;;;;13.49;50.34766;101842.5;;;;-82
2022/06/21 00:32:19;;;;;;;;;;;;;;;13.44;50.45313;101841.3;;;;-83
2022/06/21 00:37:21;;;;;;;;;;;;;;;13.36;50.46777;101835;;;;-82
2022/06/21 00:42:28;;;;;;;;;;;;;;;13.29;50.65137;101825.3;;;;-81
2022/06/21 00:43:11;;;;;;;3.6;1.6;;;;;;;;;;;;;-83
2022/06/21 00:47:21;;;;;;;;;;;;;;;13.23;50.85645;101831.5;;;;-83
2022/06/21 00:52:21;;;;;;;;;;;;;;;13.16;50.82617;101831.8;;;;-81
2022/06/21 00:57:20;;;;;;;;;;;;;;;13.08;51.0625;101826.7;;;;-84
2022/06/21 01:02:22;;;;;;;;;;;;;;;13.04;50.89063;101824;;;;-82
2022/06/21 01:07:19;;;;;;;;;;;;;;;12.99;51.06445;101825.2;;;;-81
2022/06/21 01:12:19;;;;;;;;;;;;;;;12.94;51.17188;101818.3;;;;-81
2022/06/21 01:13:13;;;;;;;4.2;1.7;;;;;;;;;;;;;-83
2022/06/21 01:17:15;;;;;;;;;;;;;;;12.91;51.07617;101821.3;;;;-80
2022/06/21 01:22:26;;;;;;;;;;;;;;;12.83;51.1123;101811.5;;;;-81
2022/06/21 01:27:16;;;;;;;;;;;;;;;12.76;51.21777;101801.7;;;;-82
2022/06/21 01:32:18;;;;;;;;;;;;;;;12.68;51.34277;101792.6;;;;-81
2022/06/21 01:37:20;;;;;;;;;;;;;;;12.64;51.39453;101791.9;;;;-80
2022/06/21 01:42:19;;;;;;;;;;;;;;;12.6;51.34375;101789;;;;-81
2022/06/21 01:43:13;;;;;;;5.3;1.9;;;;;;;;;;;;;-83
2022/06/21 01:47:18;;;;;;;;;;;;;;;12.57;51.36328;101786;;;;-81
2022/06/21 01:52:18;;;;;;;;;;;;;;;12.55;51.32617;101785.6;;;;-82
2022/06/21 01:57:17;;;;;;;;;;;;;;;12.48;51.375;101782.7;;;;-83
2022/06/21 02:02:20;;;;;;;;;;;;;;;12.43;51.46973;101772.1;;;;-82
2022/06/21 02:07:19;;;;;;;;;;;;;;;12.4;51.45508;101767.5;;;;-79
2022/06/21 02:12:18;;;;;;;;;;;;;;;12.35;51.35938;101768;;;;-83
2022/06/21 02:13:17;;;;;;;4.7;2;;;;;;;;;;;;;-82
2022/06/21 02:17:21;;;;;;;;;;;;;;;12.28;51.35156;101751.8;;;;-81
2022/06/21 02:22:22;;;;;;;;;;;;;;;12.24;51.34766;101764.9;;;;-81
2022/06/21 02:27:18;;;;;;;;;;;;;;;12.19;51.35254;101768.1;;;;-81
2022/06/21 02:32:19;;;;;;;;;;;;;;;12.15;51.50391;101773.4;;;;-83
2022/06/21 02:37:18;;;;;;;;;;;;;;;12.12;51.67969;101773.4;;;;-82
2022/06/21 02:42:20;;;;;;;;;;;;;;;12.06;51.64941;101786;;;;-82
2022/06/21 02:43:17;;;;;;;5.3;2;;;;;;;;;;;;;-82
2022/06/21 02:47:18;;;;;;;;;;;;;;;12;51.83398;101797.4;;;;-81
2022/06/21 02:52:19;;;;;;;;;;;;;;;11.95;52.01855;101790.8;;;;-81
2022/06/21 02:57:18;;;;;;;;;;;;;;;11.93;52.17188;101780;;;;-81
2022/06/21 03:02:20;;;;;;;;;;;;;;;11.88;52.21094;101775.8;;;;-84
2022/06/21 03:07:20;;;;;;;;;;;;;;;11.8;52.4248;101762.1;;;;-82
2022/06/21 03:12:20;;;;;;;;;;;;;;;11.76;52.29785;101766.6;;;;-82
2022/06/21 03:13:17;;;;;;;3.6;1.7;;;;;;;;;;;;;-80
2022/06/21 03:17:18;;;;;;;;;;;;;;;11.72;52.34961;101753.1;;;;-82
2022/06/21 03:22:19;;;;;;;;;;;;;;;11.67;52.51074;101747.1;;;;-82
2022/06/21 03:27:23;;;;;;;;;;;;;;;11.65;52.41895;101746.9;;;;-80
2022/06/21 03:32:16;;;;;;;;;;;;;;;11.59;52.53418;101743.1;;;;-83
2022/06/21 03:37:17;;;;;;;;;;;;;;;11.57;52.59961;101739.7;;;;-83
2022/06/21 03:42:18;;;;;;;;;;;;;;;11.51;52.50195;101725.5;;;;-80
2022/06/21 03:43:23;;;;;;;3.2;1.6;;;;;;;;;;;;;-81
2022/06/21 03:47:18;;;;;;;;;;;;;;;11.5;52.66895;101736.5;;;;-82
2022/06/21 03:52:41;;;;;;;;;;;;;;;11.5;52.5459;101723.3;;;;-81
2022/06/21 03:57:20;;;;;;;;;;;;;;;11.48;52.4873;101722.6;;;;-84
2022/06/21 04:02:19;;;;;;;;;;;;;;;11.52;52.43652;101734.5;;;;-82
2022/06/21 04:07:20;;;;;;;;;;;;;;;11.49;52.4668;101740.4;;;;-82
2022/06/21 04:12:20;;;;;;;;;;;;;;;11.5;52.40039;101727.6;;;;-82
2022/06/21 04:13:21;;;;;;;4.5;1.8;;;;;;;;;;;;;-82
2022/06/21 04:17:20;;;;;;;;;;;;;;;11.51;52.24512;101716.3;;;;-83
2022/06/21 04:22:20;;;;;;;;;;;;;;;11.56;52.13965;101718.7;;;;-82
2022/06/21 04:27:20;;;;;;;;;;;;;;;11.58;52.05176;101716.2;;;;-82
2022/06/21 04:32:20;;;;;;;;;;;;;;;11.62;51.9668;101700.4;;;;-81
2022/06/21 04:37:18;;;;;;;;;;;;;;;11.62;51.86719;101707.4;;;;-82
2022/06/21 04:42:20;;;;;;;;;;;;;;;11.68;51.72852;101721.1;;;;-83
2022/06/21 04:43:22;;;;;;;4.2;1.7;;;;;;;;;;;;;-82
2022/06/21 04:47:26;;;;;;;;;;;;;;;11.74;51.57813;101716.1;;;;-81
2022/06/21 04:52:19;;;;;;;;;;;;;;;11.77;51.51465;101710.3;;;;-82
2022/06/21 04:57:15;;;;;;;;;;;;;;;11.82;51.48828;101711;;;;-83
2022/06/21 05:02:24;;;;;;;;;;;;;;;11.88;51.28223;101703.7;;;;-83
2022/06/21 05:07:20;;;;;;;;;;;;;;;11.94;51.24512;101697.8;;;;-82
2022/06/21 05:12:22;;;;;;;;;;;;;;;12.02;51.09766;101696.6;;;;-83
2022/06/21 05:13:22;;;;;;;4.6;1.8;;;;;;;;;;;;;-83
2022/06/21 05:17:19;;;;;;;;;;;;;;;12.13;51.5459;101706.8;;;;-83
2022/06/21 05:22:19;;;;;;;;;;;;;;;12.38;51.86719;101708.9;;;;-82
2022/06/21 05:27:20;;;;;;;;;;;;;;;12.97;51.5332;101699.6;;;;-83
2022/06/21 05:32:18;;;;;;;;;;;;;;;13.78;50.17773;101681.6;;;;-82
2022/06/21 05:37:25;;;;;;;;;;;;;;;14.76;48.50879;101675.6;;;;-82
2022/06/21 05:42:19;;;;;;;;;;;;;;;15.7;46.99512;101677.8;;;;-83
2022/06/21 05:43:24;;;;;;;3.9;1.8;;;;;;;;;;;;;-84
2022/06/21 05:47:21;;;;;;;;;;;;;;;16.55;46.02148;101678.6;;;;-82
2022/06/21 05:52:24;;;;;;;;;;;;;;;17.35;44.61719;101675.1;;;;-81
2022/06/21 05:57:19;;;;;;;;;;;;;;;18.08;43.65527;101679.7;;;;-85
2022/06/21 06:02:21;;;;;;;;;;;;;;;18.76;42.69727;101688;;;;-84
2022/06/21 06:07:26;;;;;;;;;;;;;;;19.38;42.10547;101695.4;;;;-83
2022/06/21 06:12:22;;;;;;;;;;;;;;;19.98;41.88867;101704;;;;-84
2022/06/21 06:13:27;;;;;;;5;1.5;;;;;;;;;;;;;-85
2022/06/21 06:17:23;;;;;;;;;;;;;;;20.46;41.42969;101697.9;;;;-84
2022/06/21 06:22:21;;;;;;;;;;;;;;;20.91;40.80762;101704.1;;;;-83
2022/06/21 06:27:25;;;;;;;;;;;;;;;21.41;40.48535;101709.3;;;;-84
2022/06/21 06:32:25;;;;;;;;;;;;;;;21.88;40.35645;101701.1;;;;-82
2022/06/21 06:37:25;;;;;;;;;;;;;;;22.29;39.84082;101702.6;;;;-83
2022/06/21 06:42:19;;;;;;;;;;;;;;;22.72;39.38379;101710.7;;;;-82
2022/06/21 06:43:29;;;;;;;3.8;1.5;;;;;;;;;;;;;-83
2022/06/21 06:47:18;;;;;;;;;;;;;;;23.12;39.0957;101726.6;;;;-85
2022/06/21 06:52:20;;;;;;;;;;;;;;;23.45;38.90625;101716;;;;-84
2022/06/21 06:57:22;;;;;;;;;;;;;;;23.77;38.69141;101720.9;;;;-81
2022/06/21 07:02:21;;;;;;;;;;;;;;;24.13;38.43359;101728.7;;;;-82
2022/06/21 07:07:21;;;;;;;;;;;;;;;24.5;38.03809;101731.5;;;;-84
2022/06/21 07:12:18;;;;;;;;;;;;;;;24.82;37.80957;101725.1;;;;-82
2022/06/21 07:13:31;;;;;;;4;1.5;;;;;;;;;;;;;-83
2022/06/21 07:17:18;;;;;;;;;;;;;;;25.15;37.53711;101741.3;;;;-83
2022/06/21 07:22:19;;;;;;;;;;;;;;;25.43;37.00391;101737.9;;;;-81
2022/06/21 07:27:18;;;;;;;;;;;;;;;25.6;36.90137;101730.2;;;;-82
2022/06/21 07:32:17;;;;;;;;;;;;;;;25.75;36.55469;101734.2;;;;-81
2022/06/21 07:37:20;;;;;;;;;;;;;;;25.83;36.46777;101745;;;;-82
2022/06/21 07:42:19;;;;;;;;;;;;;;;25.86;36.23828;101742.4;;;;-81
2022/06/21 07:43:36;;;;;;;5.3;1.6;;;;;;;;;;;;;-83
2022/06/21 07:47:21;;;;;;;;;;;;;;;25.91;36.32324;101734.4;;;;-83
2022/06/21 07:52:25;;;;;;;;;;;;;;;26.1;36.22266;101734.3;;;;-82
2022/06/21 07:57:22;;;;;;;;;;;;;;;26.29;36.14453;101729.8;;;;-82
2022/06/21 08:07:17;;;;;;;;;;;;;;;26.8;35.56934;101729.4;;;;-79
2022/06/21 08:12:18;;;;;;;;;;;;;;;24.77;37.14648;101733.6;;;;-82
2022/06/21 08:13:38;;;;;;;6.4;1.6;;;;;;;;;;;;;-80
2022/06/21 08:17:24;;;;;;;;;;;;;;;23.57;39.07813;101740.4;;;;-80
2022/06/21 08:22:18;;;;;;;;;;;;;;;24.12;38.74414;101741;;;;-75
2022/06/21 08:27:22;;;;;;;;;;;;;;;25.48;36.30078;101730.6;;;;-77
2022/06/21 08:32:18;;;;;;;;;;;;;;;25.96;35.50293;101718.5;;;;-78
2022/06/21 08:37:18;;;;;;;;;;;;;;;26.62;34.62598;101725.7;;;;-78
2022/06/21 08:42:32;;;;;;;;;;;;;;;27;34.45605;101720.2;;;;-78
2022/06/21 08:43:50;;;;;;;4.1;1.3;;;;;;;;;;;;;-78
2022/06/21 08:47:26;;;;;;;;;;;;;;;27.46;33.90918;101715.1;;;;-78
2022/06/21 08:52:29;;;;;;;;;;;;;;;27.78;33.65234;101712.2;;;;-79
2022/06/21 08:57:19;;;;;;;;;;;;;;;28.1;33.50195;101700;;;;-79
2022/06/21 09:02:23;;;;;;;;;;;;;;;28.36;33.13477;101696.5;;;;-80
2022/06/21 09:07:31;;;;;;;;;;;;;;;28.54;32.72754;101694.6;;;;-80
2022/06/21 09:12:22;;;;;;;;;;;;;;;28.69;32.72754;101681.6;;;;-77
2022/06/21 09:13:52;;;;;;;4.2;1.7;;;;;;;;;;;;;-78
2022/06/21 09:17:22;;;;;;;;;;;;;;;28.87;32.51758;101665.6;;;;-78
2022/06/21 09:22:20;;;;;;;;;;;;;;;29.05;32.0625;101668.4;;;;-78
2022/06/21 09:27:20;;;;;;;;;;;;;;;28.98;31.58887;101667.5;;;;-78
2022/06/21 09:32:22;;;;;;;;;;;;;;;28.79;31.9043;101656.7;;;;-80
2022/06/21 09:37:23;;;;;;;;;;;;;;;28.81;32.28027;101663.8;;;;-79
2022/06/21 09:42:21;;;;;;;;;;;;;;;29.01;31.66211;101667.7;;;;-78
2022/06/21 09:43:57;;;;;;;3.7;1.5;;;;;;;;;;;;;-78
2022/06/21 09:47:21;;;;;;;;;;;;;;;29.05;31.99219;101663.8;;;;-78
2022/06/21 09:52:22;;;;;;;;;;;;;;;29.43;31.83203;101655.5;;;;-74
2022/06/21 09:57:23;;;;;;;;;;;;;;;29.95;31.58594;101652.1;;;;-78
2022/06/21 10:02:26;;;;;;;;;;;;;;;30.44;30.91602;101657.3;;;;-79
2022/06/21 10:07:27;;;;;;;;;;;;;;;30.81;30.50684;101654.1;;;;-77
2022/06/21 10:12:27;;;;;;;;;;;;;;;31.1;29.9375;101657.6;;;;-78
2022/06/21 10:14:07;;;;;;;3.4;1.5;;;;;;;;;;;;;-78
2022/06/21 10:17:25;;;;;;;;;;;;;;;31.14;29.39941;101651.1;;;;-78
2022/06/21 10:22:23;;;;;;;;;;;;;;;31.07;29.39453;101650.6;;;;-78
2022/06/21 10:27:29;;;;;;;;;;;;;;;30.99;29.11914;101639;;;;-78
2022/06/21 10:32:23;;;;;;;;;;;;;;;30.87;29.42871;101628.3;;;;-77
2022/06/21 10:37:24;;;;;;;;;;;;;;;30.73;29.5498;101628.5;;;;-78
2022/06/21 10:44:13;;;;;;;4.7;1.6;;;;;;;;;;;;;-78
2022/06/21 10:47:24;;;;;;;;;;;;;;;31.2;29.65039;101617.2;;;;-77
2022/06/21 10:52:28;;;;;;;;;;;;;;;31.43;29.44141;101615.1;;;;-78
2022/06/21 10:57:20;;;;;;;;;;;;;;;31.65;29.24414;101617;;;;-79
2022/06/21 11:02:22;;;;;;;;;;;;;;;31.65;28.77246;101605.1;;;;-78
2022/06/21 11:07:22;;;;;;;;;;;;;;;31.69;28.72852;101605.1;;;;-77
2022/06/21 11:14:06;;;;;;;3.5;1.5;;;;;;;;;;;;;-79
2022/06/21 11:17:22;;;;;;;;;;;;;;;31.51;28.2334;101592.6;;;;-76
2022/06/21 11:22:29;;;;;;;;;;;;;;;31.28;29.38574;101594.5;;;;-84
2022/06/21 11:27:28;;;;;;;;;;;;;;;31.3;29.3623;101596.4;;;;-87
2022/06/21 11:32:21;;;;;;;;;;;;;;;31.22;29.4043;101597.6;;;;-85
2022/06/21 11:37:26;;;;;;;;;;;;;;;31.12;29.38672;101599.8;;;;-85
2022/06/21 11:42:29;;;;;;;;;;;;;;;31.06;29.54688;101599;;;;-85
2022/06/21 11:44:22;;;;;;;5.2;1.4;;;;;;;;;;;;;-85
2022/06/21 11:47:37;;;;;;;;;;;;;;;31.04;29.72266;101595.8;;;;-84
2022/06/21 11:52:31;;;;;;;;;;;;;;;31.1;29.78516;101598.1;;;;-84
2022/06/21 11:57:21;;;;;;;;;;;;;;;31.29;29.67969;101594.1;;;;-84
2022/06/21 12:02:23;;;;;;;;;;;;;;;31.56;29.46191;101594;;;;-84
2022/06/21 12:07:22;;;;;;;;;;;;;;;31.85;28.93848;101590.6;;;;-85
2022/06/21 12:14:23;;;;;;;4;1.3;;;;;;;;;;;;;-83
2022/06/21 12:17:22;;;;;;;;;;;;;;;32.1;29.35547;101591.6;;;;-84
2022/06/21 12:22:25;;;;;;;;;;;;;;;32.05;29.02246;101586.5;;;;-85
2022/06/21 12:27:18;;;;;;;;;;;;;;;31.93;29.4502;101577.3;;;;-85
2022/06/21 12:32:26;;;;;;;;;;;;;;;31.8;29.34766;101577;;;;-82
2022/06/21 12:37:20;;;;;;;;;;;;;;;31.66;29.58594;101576.4;;;;-84
2022/06/21 12:42:38;;;;;;;;;;;;;;;31.57;29.59277;101570.6;;;;-85
2022/06/21 12:55:17;;;;;;;;;;;;;;;32.03;29.375;101573.8;;;;-84
2022/06/21 12:58:07;;;;;;;;;;;;;;;31.8;29.7832;101571.4;;;;-85
2022/06/21 13:03:10;;;;;;;;;;;;;;;31.87;29.44629;101563.6;;;;-84
2022/06/21 13:08:06;;;;;;;;;;;;;;;31.9;28.94238;101555.7;;;;-84
2022/06/21 13:13:11;;;;;;;;;;;;;;;32.02;28.82031;101543.9;;;;-86
2022/06/21 13:14:33;;;;;;;3.3;1.2;;;;;;;;;;;;;-83
2022/06/21 13:18:07;;;;;;;;;;;;;;;32.28;28.42285;101544.8;;;;-84
2022/06/21 13:23:02;;;;;;;;;;;;;;;32.58;27.80371;101534.3;;;;-82
2022/06/21 13:28:00;;;;;;;;;;;;;;;32.91;27.52832;101533.6;;;;-84
2022/06/21 13:33:12;;;;;;;;;;;;;;;33.22;27.92578;101528.6;;;;-84
2022/06/21 13:37:59;;;;;;;;;;;;;;;33.43;27.44141;101517.6;;;;-85
2022/06/21 13:43:01;;;;;;;;;;;;;;;33.59;28.45703;101516.5;;;;-84
2022/06/21 13:44:37;;;;;;;3.1;1.3;;;;;;;;;;;;;-83
2022/06/21 13:48:04;;;;;;;;;;;;;;;33.81;29.12109;101513.7;;;;-85
2022/06/21 13:53:01;;;;;;;;;;;;;;;33.88;28.32129;101508;;;;-83
2022/06/21 13:58:05;;;;;;;;;;;;;;;34.03;26.82617;101505.1;;;;-84
2022/06/21 14:02:59;;;;;;;;;;;;;;;34.16;27.49805;101509;;;;-84
2022/06/21 14:07:59;;;;;;;;;;;;;;;34.01;26.93164;101504.1;;;;-83
2022/06/21 14:13:01;;;;;;;;;;;;;;;33.82;27.99805;101510.1;;;;-85
2022/06/21 14:14:40;;;;;;;2.7;1.1;;;;;;;;;;;;;-86
2022/06/21 14:18:00;;;;;;;;;;;;;;;33.62;27.87988;101507.2;;;;-84
2022/06/21 14:23:09;;;;;;;;;;;;;;;33.41;27.94922;101508.2;;;;-84
2022/06/21 14:28:09;;;;;;;;;;;;;;;33.18;28.31348;101510.9;;;;-86
2022/06/21 14:38:29;;;;;;;;;;;;;;;;;;;;;
2022/06/21 14:42:59;;;;;;;;;;;;;;;32.47;28.83594;101501.6;;;;-85
2022/06/21 14:44:54;;;;;;;4.2;1.4;;;;;;;;;;;;;-84
2022/06/21 14:58:05;;;;;;;;;;;;;;;31.7;29.22363;101494;;;;-85
2022/06/21 15:03:13;;;;;;;;;;;;;;;31.5;29.48145;101495.3;;;;-83
2022/06/21 15:08:00;;;;;;;;;;;;;;;31.43;29.77148;101494.6;;;;-87
2022/06/21 15:12:56;;;;;;;;;;;;;;;31.38;29.94434;101495.5;;;;-81
2022/06/21 15:14:48;;;;;;;3.6;1.5;;;;;;;;;;;;;-83
2022/06/21 15:17:57;;;;;;;;;;;;;;;31.32;29.96484;101486.6;;;;-80
2022/06/21 15:23:00;;;;;;;;;;;;;;;31.25;29.95996;101483.2;;;;-81
2022/06/21 15:27:57;;;;;;;;;;;;;;;31.18;29.91992;101480.1;;;;-82
2022/06/21 15:32:58;;;;;;;;;;;;;;;31.13;30.0332;101480.8;;;;-82
2022/06/21 15:37:58;;;;;;;;;;;;;;;31.04;30.33301;101473.2;;;;-82
2022/06/21 15:43:00;;;;;;;;;;;;;;;31.03;30.23926;101465.2;;;;-81
2022/06/21 15:44:56;;;;;;;3.7;1.8;;;;;;;;;;;;;-81
2022/06/21 15:53:10;;;;;;;;;;;;;;;30.86;30.3457;101463.8;;;;-80
2022/06/21 15:58:02;;;;;;;;;;;;;;;30.74;30.51367;101469.7;;;;-82
2022/06/21 16:02:59;;;;;;;;;;;;;;;30.65;30.75391;101471.8;;;;-77
2022/06/21 16:07:55;;;;;;;;;;;;;;;30.56;30.87793;101470.1;;;;-81
2022/06/21 16:12:55;;;;;;;;;;;;;;;30.43;31.05762;101470;;;;-82
2022/06/21 16:14:59;;;;;;;3.9;1.8;;;;;;;;;;;;;-78
2022/06/21 16:17:57;;;;;;;;;;;;;;;30.32;31.23633;101462.4;;;;-80
2022/06/21 16:22:57;;;;;;;;;;;;;;;30.22;31.46387;101455.8;;;;-82
2022/06/21 16:27:58;;;;;;;;;;;;;;;30.13;31.61133;101461.5;;;;-77
2022/06/21 16:37:58;;;;;;;;;;;;;;;29.99;31.80078;101445.4;;;;-77
2022/06/21 16:43:00;;;;;;;;;;;;;;;30.04;31.76855;101450.1;;;;-74
2022/06/21 16:45:01;;;;;;;5;2.2;;;;;;;;;;;;;-75
2022/06/21 16:47:58;;;;;;;;;;;;;;;30.04;31.7334;101446.6;;;;-75
2022/06/21 16:52:54;;;;;;;;;;;;;;;30.02;31.42773;101447.6;;;;-74
2022/06/21 16:58:04;;;;;;;;;;;;;;;30.04;31.12402;101444.8;;;;-75
2022/06/21 17:02:54;;;;;;;;;;;;;;;30.06;31.04297;101441;;;;-76
2022/06/21 17:07:55;;;;;;;;;;;;;;;30.07;30.58594;101437.2;;;;-77
2022/06/21 17:12:55;;;;;;;;;;;;;;;30.09;30.75098;101441.9;;;;-79
2022/06/21 17:15:06;;;;;;;4.8;1.7;;;;;;;;;;;;;-80
2022/06/21 17:18:01;;;;;;;;;;;;;;;30.11;30.68262;101432.1;;;;-78
2022/06/21 17:22:58;;;;;;;;;;;;;;;30.08;30.51563;101430.8;;;;-78
2022/06/21 17:28:04;;;;;;;;;;;;;;;30.04;30.72461;101432.9;;;;-78
2022/06/21 17:32:56;;;;;;;;;;;;;;;30;30.75781;101432.8;;;;-78
2022/06/21 17:37:57;;;;;;;;;;;;;;;29.94;30.87012;101432.6;;;;-77
2022/06/21 17:42:58;;;;;;;;;;;;;;;29.84;30.92285;101429.3;;;;-78
2022/06/21 17:45:12;;;;;;;3.6;1.4;;;;;;;;;;;;;-79
2022/06/21 17:47:55;;;;;;;;;;;;;;;29.69;30.90039;101434.5;;;;-79
2022/06/21 17:52:58;;;;;;;;;;;;;;;29.56;31.17285;101431.3;;;;-78
2022/06/21 17:57:59;;;;;;;;;;;;;;;29.42;31.31543;101435.9;;;;-77
2022/06/21 18:02:58;;;;;;;;;;;;;;;29.22;31.53613;101437.8;;;;-77
2022/06/21 18:08:02;;;;;;;;;;;;;;;28.97;31.76367;101440;;;;-80
2022/06/21 18:12:58;;;;;;;;;;;;;;;28.7;32.16602;101439.2;;;;-78
2022/06/21 18:15:15;;;;;;;3.4;1.5;;;;;;;;;;;;;-78
2022/06/21 18:17:59;;;;;;;;;;;;;;;28.4;32.4248;101437.2;;;;-78
2022/06/21 18:22:58;;;;;;;;;;;;;;;28.11;32.80176;101442;;;;-79
2022/06/21 18:28:02;;;;;;;;;;;;;;;27.83;33.14258;101446.9;;;;-78
2022/06/21 18:32:56;;;;;;;;;;;;;;;27.53;33.45898;101455.2;;;;-78
2022/06/21 18:38:18;;;;;;;;;;;;;;;27.25;33.51953;101453.3;;;;-77
2022/06/21 18:42:59;;;;;;;;;;;;;;;26.95;33.91699;101460.6;;;;-77
2022/06/21 18:45:23;;;;;;;3.9;1.6;;;;;;;;;;;;;-78
2022/06/21 18:48:00;;;;;;;;;;;;;;;26.62;34.11328;101459.8;;;;-78
2022/06/21 18:53:00;;;;;;;;;;;;;;;26.27;34.38867;101464.7;;;;-78
2022/06/21 18:58:00;;;;;;;;;;;;;;;25.94;34.65332;101475;;;;-79
2022/06/21 19:02:59;;;;;;;;;;;;;;;25.61;34.81445;101480.3;;;;-80
2022/06/21 19:12:55;;;;;;;;;;;;;;;24.89;35.44238;101482.1;;;;-79
2022/06/21 19:15:25;;;;;;;3.4;1.7;;;;;;;;;;;;;-78
2022/06/21 19:18:04;;;;;;;;;;;;;;;24.55;35.58887;101481.9;;;;-77
2022/06/21 19:23:07;;;;;;;;;;;;;;;24.23;35.86328;101480.7;;;;-77
2022/06/21 19:27:59;;;;;;;;;;;;;;;23.91;36.20898;101493.7;;;;-76
2022/06/21 19:33:02;;;;;;;;;;;;;;;23.55;36.65234;101504.3;;;;-77
2022/06/21 19:37:57;;;;;;;;;;;;;;;23.24;36.91602;101500.2;;;;-77
2022/06/21 19:43:02;;;;;;;;;;;;;;;22.94;37.4209;101510.7;;;;-77
2022/06/21 19:45:38;;;;;;;4.1;2.1;;;;;;;;;;;;;-78
2022/06/21 19:47:56;;;;;;;;;;;;;;;22.64;37.70703;101511.3;;;;-78
2022/06/21 19:52:56;;;;;;;;;;;;;;;22.33;38.26758;101517.5;;;;-76
2022/06/21 19:57:54;;;;;;;;;;;;;;;22.06;38.625;101529.1;;;;-79
2022/06/21 20:02:55;;;;;;;;;;;;;;;21.8;39.01465;101538.1;;;;-77
2022/06/21 20:08:03;;;;;;;;;;;;;;;21.53;39.41699;101539;;;;-77
2022/06/21 20:12:59;;;;;;;;;;;;;;;21.28;39.80762;101542.4;;;;-77
2022/06/21 20:15:32;;;;;;;5.9;2;;;;;;;;;;;;;-77
2022/06/21 20:17:57;;;;;;;;;;;;;;;21.03;40.19824;101544.1;;;;-77
2022/06/21 20:23:00;;;;;;;;;;;;;;;20.8;40.5791;101547.9;;;;-77
2022/06/21 20:28:02;;;;;;;;;;;;;;;20.58;41.0166;101552.5;;;;-76
2022/06/21 20:33:00;;;;;;;;;;;;;;;20.35;41.40723;101547.5;;;;-77
2022/06/21 20:37:56;;;;;;;;;;;;;;;20.15;41.73242;101546.8;;;;-77
2022/06/21 20:45:34;;;;;;;4;2.2;;;;;;;;;;;;;-77
2022/06/21 20:48:02;;;;;;;;;;;;;;;19.75;42.42578;101533.3;;;;-75
2022/06/21 20:53:04;;;;;;;;;;;;;;;19.55;42.78418;101520.1;;;;-77
2022/06/21 20:58:03;;;;;;;;;;;;;;;19.38;43.01953;101523.5;;;;-77
2022/06/21 21:02:57;;;;;;;;;;;;;;;19.25;43.14355;101523.1;;;;-76
2022/06/21 21:07:57;;;;;;;;;;;;;;;19.08;43.43457;101515.9;;;;-77
2022/06/21 21:12:57;;;;;;;;;;;;;;;18.94;43.64941;101511.2;;;;-77
2022/06/21 21:15:37;;;;;;;4.7;2.5;;;;;;;;;;;;;-78
2022/06/21 21:17:56;;;;;;;;;;;;;;;18.8;43.9541;101516.3;;;;-77
2022/06/21 21:22:55;;;;;;;;;;;;;;;18.65;43.99707;101519;;;;-76
2022/06/21 21:27:55;;;;;;;;;;;;;;;18.5;44.17578;101529.9;;;;-79
2022/06/21 21:33:12;;;;;;;;;;;;;;;18.38;44.40234;101522.7;;;;-78
2022/06/21 21:38:02;;;;;;;;;;;;;;;18.23;44.41016;101518.3;;;;-84
2022/06/21 21:43:00;;;;;;;;;;;;;;;18.1;44.63672;101518.2;;;;-83
2022/06/21 21:45:37;;;;;;;4.9;2.4;;;;;;;;;;;;;-83
2022/06/21 21:47:57;;;;;;;;;;;;;;;17.99;44.89746;101517;;;;-81
2022/06/21 21:52:56;;;;;;;;;;;;;;;17.87;45.02246;101522.1;;;;-83
2022/06/21 21:57:55;;;;;;;;;;;;;;;17.76;45.06738;101520.4;;;;-83
2022/06/21 22:03:00;;;;;;;;;;;;;;;17.65;45.2041;101517.8;;;;-83
2022/06/21 22:08:03;;;;;;;;;;;;;;;17.52;45.25879;101517;;;;-83
2022/06/21 22:15:45;;;;;;;7.6;2.8;;;;;;;;;;;;;-82
2022/06/21 22:17:56;;;;;;;;;;;;;;;17.3;45.71387;101504.6;;;;-84
2022/06/21 22:22:55;;;;;;;;;;;;;;;17.21;45.7832;101509.6;;;;-85
2022/06/21 22:28:00;;;;;;;;;;;;;;;17.08;45.78125;101510.5;;;;-85
2022/06/21 22:32:56;;;;;;;;;;;;;;;16.96;45.95117;101505;;;;-82
2022/06/21 22:37:55;;;;;;;;;;;;;;;16.86;46.21289;101501.2;;;;-85
2022/06/21 22:42:55;;;;;;;;;;;;;;;16.74;46.5293;101498.7;;;;-83
2022/06/21 22:45:44;;;;;;;6.6;3.1;;;;;;;;;;;;;-83
2022/06/21 22:47:55;;;;;;;;;;;;;;;16.63;46.5625;101506.2;;;;-83
2022/06/21 22:52:56;;;;;;;;;;;;;;;16.51;46.52637;101509;;;;-84
2022/06/21 22:58:00;;;;;;;;;;;;;;;16.41;46.86719;101507.3;;;;-83
2022/06/21 23:03:00;;;;;;;;;;;;;;;16.34;46.69043;101507.7;;;;-82
2022/06/21 23:07:55;;;;;;;;;;;;;;;16.21;47.20898;101515.6;;;;-84
2022/06/21 23:13:02;;;;;;;;;;;;;;;16.13;47.3252;101513.3;;;;-82
2022/06/21 23:15:45;;;;;;;5.6;2.9;;;;;;;;;;;;;-84
2022/06/21 23:17:55;;;;;;;;;;;;;;;16.06;47.18164;101509.3;;;;-84
2022/06/21 23:22:57;;;;;;;;;;;;;;;15.95;47.35059;101511.7;;;;-84
2022/06/21 23:27:55;;;;;;;;;;;;;;;15.86;47.51074;101510;;;;-84
2022/06/21 23:32:57;;;;;;;;;;;;;;;15.78;47.62598;101497.9;;;;-83
2022/06/21 23:37:55;;;;;;;;;;;;;;;15.71;47.61914;101496;;;;-84
2022/06/21 23:42:56;;;;;;;;;;;;;;;15.63;47.75684;101494.5;;;;-84
2022/06/21 23:45:45;;;;;;;6.8;2.9;;;;;;;;;;;;;-83
2022/06/21 23:47:56;;;;;;;;;;;;;;;15.54;47.75879;101498.8;;;;-83
2022/06/21 23:52:58;;;;;;;;;;;;;;;15.45;47.99805;101498;;;;-84
2022/06/21 23:57:55;;;;;;;;;;;;;;;15.36;48.13379;101493.9;;;;-82
